CheckWX is a tool to help pilots better visualize weather data.  It is not intended as a substitute for an official pre-flight weather briefing.

07:27:49 UTC

KGAF METAR
Hutson Field Airport
Grafton, North Dakota, USA
Current

13 mins ago

KGAF 210715Z AUTO 35008KT 3SM -RA SCT024 BKN040 07/07 A2985 RMK AO2
Observed
Oct-21 @ 07:15 UTC
Wind
  • 350° at 8 KTS
Visibility
3 SM
Flight Rules
MVFR
Conditions
Light Rain
Cloud Levels
  • Scattered at 2,400' AGL
  • Broken at 4,000' AGL
Temperature
C / 45°F
Dewpoint
C / 45°F
Humidity
100%
Altimeter
29.85" Hg
Pressure
1010.82 hPa
Previous

33 mins ago

KGAF 210655Z AUTO 00000KT 6SM -RA CLR 07/07 A2986 RMK AO2
Observed
Oct-21 @ 06:55 UTC
Visibility
6 SM
Flight Rules
VFR
Conditions
Light Rain
Cloud Levels
  • Clear skies
Temperature
C / 45°F
Dewpoint
C / 45°F
Humidity
100%
Altimeter
29.86" Hg
Pressure
1011.22 hPa
Previous

53 mins ago

KGAF 210635Z AUTO 00000KT 6SM -RA CLR 07/07 A2985 RMK AO2
Observed
Oct-21 @ 06:35 UTC
Visibility
6 SM
Flight Rules
VFR
Conditions
Light Rain
Cloud Levels
  • Clear skies
Temperature
C / 45°F
Dewpoint
C / 45°F
Humidity
100%
Altimeter
29.85" Hg
Pressure
1010.82 hPa